sensor_id;sensor_type;location;lat;lon;timestamp;P1;durP1;ratioP1;P2;durP2;ratioP2
14992;SDS011;7592;51.088;13.732;2023-08-30T00:00:43;1.53;;;1.10;;
14992;SDS011;7592;51.088;13.732;2023-08-30T00:05:38;0.80;;;0.80;;
14992;SDS011;7592;51.088;13.732;2023-08-30T00:10:31;1.00;;;0.93;;
14992;SDS011;7592;51.088;13.732;2023-08-30T00:15:23;1.20;;;1.10;;
14992;SDS011;7592;51.088;13.732;2023-08-30T00:20:16;1.53;;;1.17;;
14992;SDS011;7592;51.088;13.732;2023-08-30T00:25:08;1.10;;;0.90;;
14992;SDS011;7592;51.088;13.732;2023-08-30T00:30:00;10.23;;;6.73;;
14992;SDS011;7592;51.088;13.732;2023-08-30T00:34:52;2.00;;;1.33;;
14992;SDS011;7592;51.088;13.732;2023-08-30T00:39:44;1.67;;;1.57;;
14992;SDS011;7592;51.088;13.732;2023-08-30T00:44:36;1.60;;;1.50;;
14992;SDS011;7592;51.088;13.732;2023-08-30T00:49:29;1.53;;;1.20;;
14992;SDS011;7592;51.088;13.732;2023-08-30T00:54:23;2.13;;;2.03;;
14992;SDS011;7592;51.088;13.732;2023-08-30T00:59:15;2.03;;;1.60;;
14992;SDS011;7592;51.088;13.732;2023-08-30T01:04:07;4.93;;;1.90;;
14992;SDS011;7592;51.088;13.732;2023-08-30T01:15:02;1.67;;;1.60;;
14992;SDS011;7592;51.088;13.732;2023-08-30T01:20:04;1.63;;;1.53;;
14992;SDS011;7592;51.088;13.732;2023-08-30T01:30:07;1.80;;;1.70;;
14992;SDS011;7592;51.088;13.732;2023-08-30T01:35:04;2.43;;;1.83;;
14992;SDS011;7592;51.088;13.732;2023-08-30T01:39:59;1.73;;;1.63;;
14992;SDS011;7592;51.088;13.732;2023-08-30T01:44:53;1.80;;;1.70;;
14992;SDS011;7592;51.088;13.732;2023-08-30T01:49:55;3.57;;;1.70;;
14992;SDS011;7592;51.088;13.732;2023-08-30T01:54:48;2.83;;;2.63;;
14992;SDS011;7592;51.088;13.732;2023-08-30T01:59:43;3.03;;;2.00;;
14992;SDS011;7592;51.088;13.732;2023-08-30T02:04:35;2.73;;;2.30;;
14992;SDS011;7592;51.088;13.732;2023-08-30T02:09:28;4.27;;;2.47;;
14992;SDS011;7592;51.088;13.732;2023-08-30T02:14:28;5.50;;;2.83;;
14992;SDS011;7592;51.088;13.732;2023-08-30T02:19:22;2.97;;;2.20;;
14992;SDS011;7592;51.088;13.732;2023-08-30T02:24:15;2.67;;;2.37;;
14992;SDS011;7592;51.088;13.732;2023-08-30T02:29:07;4.87;;;2.30;;
14992;SDS011;7592;51.088;13.732;2023-08-30T02:34:01;2.23;;;2.10;;
14992;SDS011;7592;51.088;13.732;2023-08-30T02:38:54;2.93;;;2.73;;
14992;SDS011;7592;51.088;13.732;2023-08-30T02:43:46;2.90;;;2.70;;
14992;SDS011;7592;51.088;13.732;2023-08-30T02:48:38;2.80;;;2.70;;
14992;SDS011;7592;51.088;13.732;2023-08-30T02:53:31;3.30;;;2.93;;
14992;SDS011;7592;51.088;13.732;2023-08-30T02:58:24;2.90;;;2.70;;
14992;SDS011;7592;51.088;13.732;2023-08-30T03:03:22;2.80;;;2.60;;
14992;SDS011;7592;51.088;13.732;2023-08-30T03:08:14;3.03;;;2.83;;
14992;SDS011;7592;51.088;13.732;2023-08-30T03:13:06;3.80;;;3.20;;
14992;SDS011;7592;51.088;13.732;2023-08-30T03:17:59;2.57;;;2.37;;
14992;SDS011;7592;51.088;13.732;2023-08-30T03:22:51;3.57;;;3.10;;
14992;SDS011;7592;51.088;13.732;2023-08-30T03:27:43;2.93;;;2.63;;
14992;SDS011;7592;51.088;13.732;2023-08-30T03:32:36;3.33;;;2.60;;
14992;SDS011;7592;51.088;13.732;2023-08-30T03:37:28;3.27;;;3.03;;
14992;SDS011;7592;51.088;13.732;2023-08-30T03:42:20;3.43;;;3.13;;
14992;SDS011;7592;51.088;13.732;2023-08-30T03:47:13;3.27;;;3.03;;
14992;SDS011;7592;51.088;13.732;2023-08-30T03:52:05;3.90;;;3.03;;
14992;SDS011;7592;51.088;13.732;2023-08-30T03:56:57;3.70;;;3.30;;
14992;SDS011;7592;51.088;13.732;2023-08-30T04:01:49;4.50;;;3.27;;
14992;SDS011;7592;51.088;13.732;2023-08-30T04:06:41;3.50;;;3.27;;
14992;SDS011;7592;51.088;13.732;2023-08-30T04:11:33;3.83;;;3.53;;
14992;SDS011;7592;51.088;13.732;2023-08-30T04:16:25;3.40;;;3.10;;
14992;SDS011;7592;51.088;13.732;2023-08-30T04:21:18;3.30;;;3.00;;
14992;SDS011;7592;51.088;13.732;2023-08-30T04:26:10;2.60;;;2.50;;
14992;SDS011;7592;51.088;13.732;2023-08-30T04:31:02;4.77;;;4.30;;
14992;SDS011;7592;51.088;13.732;2023-08-30T04:35:54;3.73;;;3.30;;
14992;SDS011;7592;51.088;13.732;2023-08-30T04:40:47;4.30;;;3.23;;
14992;SDS011;7592;51.088;13.732;2023-08-30T04:45:40;3.73;;;2.97;;
14992;SDS011;7592;51.088;13.732;2023-08-30T04:50:33;4.37;;;3.30;;
14992;SDS011;7592;51.088;13.732;2023-08-30T04:55:28;4.70;;;3.53;;
14992;SDS011;7592;51.088;13.732;2023-08-30T05:00:23;3.10;;;2.90;;
14992;SDS011;7592;51.088;13.732;2023-08-30T05:05:16;2.97;;;2.70;;
14992;SDS011;7592;51.088;13.732;2023-08-30T05:10:08;2.50;;;2.30;;
14992;SDS011;7592;51.088;13.732;2023-08-30T05:15:01;3.70;;;2.30;;
14992;SDS011;7592;51.088;13.732;2023-08-30T05:19:55;4.23;;;2.33;;
14992;SDS011;7592;51.088;13.732;2023-08-30T05:24:47;3.47;;;2.47;;
14992;SDS011;7592;51.088;13.732;2023-08-30T05:29:40;3.00;;;2.70;;
14992;SDS011;7592;51.088;13.732;2023-08-30T05:34:33;2.83;;;2.37;;
14992;SDS011;7592;51.088;13.732;2023-08-30T05:39:58;2.73;;;2.53;;
14992;SDS011;7592;51.088;13.732;2023-08-30T05:44:50;2.77;;;2.57;;
14992;SDS011;7592;51.088;13.732;2023-08-30T05:49:42;3.63;;;2.20;;
14992;SDS011;7592;51.088;13.732;2023-08-30T05:54:34;2.67;;;2.30;;
14992;SDS011;7592;51.088;13.732;2023-08-30T05:59:27;3.13;;;2.13;;
14992;SDS011;7592;51.088;13.732;2023-08-30T06:04:19;2.47;;;2.03;;
14992;SDS011;7592;51.088;13.732;2023-08-30T06:09:11;2.60;;;2.40;;
14992;SDS011;7592;51.088;13.732;2023-08-30T06:14:04;3.23;;;2.37;;
14992;SDS011;7592;51.088;13.732;2023-08-30T06:18:56;4.57;;;2.70;;
14992;SDS011;7592;51.088;13.732;2023-08-30T06:23:50;3.33;;;2.37;;
14992;SDS011;7592;51.088;13.732;2023-08-30T06:28:42;1.80;;;1.70;;
14992;SDS011;7592;51.088;13.732;2023-08-30T06:33:52;2.17;;;2.03;;
14992;SDS011;7592;51.088;13.732;2023-08-30T06:38:46;2.20;;;2.10;;
14992;SDS011;7592;51.088;13.732;2023-08-30T06:43:38;3.63;;;2.20;;
14992;SDS011;7592;51.088;13.732;2023-08-30T06:48:31;2.80;;;2.60;;
14992;SDS011;7592;51.088;13.732;2023-08-30T06:53:23;3.20;;;2.90;;
14992;SDS011;7592;51.088;13.732;2023-08-30T06:58:15;3.13;;;2.80;;
14992;SDS011;7592;51.088;13.732;2023-08-30T07:03:07;5.50;;;3.80;;
14992;SDS011;7592;51.088;13.732;2023-08-30T07:07:59;4.73;;;3.60;;
14992;SDS011;7592;51.088;13.732;2023-08-30T07:12:51;4.43;;;4.20;;
14992;SDS011;7592;51.088;13.732;2023-08-30T07:17:43;5.57;;;5.00;;
14992;SDS011;7592;51.088;13.732;2023-08-30T07:22:56;5.27;;;4.80;;
14992;SDS011;7592;51.088;13.732;2023-08-30T07:27:48;4.53;;;4.13;;
14992;SDS011;7592;51.088;13.732;2023-08-30T07:32:40;4.17;;;3.87;;
14992;SDS011;7592;51.088;13.732;2023-08-30T07:37:34;5.90;;;4.13;;
14992;SDS011;7592;51.088;13.732;2023-08-30T07:42:26;8.13;;;5.30;;
14992;SDS011;7592;51.088;13.732;2023-08-30T07:47:18;3.93;;;3.53;;
14992;SDS011;7592;51.088;13.732;2023-08-30T07:52:11;3.20;;;2.90;;
14992;SDS011;7592;51.088;13.732;2023-08-30T07:57:04;3.17;;;2.83;;
14992;SDS011;7592;51.088;13.732;2023-08-30T08:01:57;2.40;;;2.30;;
14992;SDS011;7592;51.088;13.732;2023-08-30T08:06:49;2.30;;;2.10;;
14992;SDS011;7592;51.088;13.732;2023-08-30T08:11:48;5.00;;;2.20;;
14992;SDS011;7592;51.088;13.732;2023-08-30T08:16:40;2.90;;;2.60;;
14992;SDS011;7592;51.088;13.732;2023-08-30T08:21:33;2.77;;;2.37;;
14992;SDS011;7592;51.088;13.732;2023-08-30T08:26:26;3.17;;;2.00;;
14992;SDS011;7592;51.088;13.732;2023-08-30T08:31:18;2.30;;;1.90;;
14992;SDS011;7592;51.088;13.732;2023-08-30T08:36:10;5.17;;;2.60;;
14992;SDS011;7592;51.088;13.732;2023-08-30T08:41:03;2.20;;;2.10;;
14992;SDS011;7592;51.088;13.732;2023-08-30T08:45:57;2.27;;;2.00;;
14992;SDS011;7592;51.088;13.732;2023-08-30T08:50:51;3.47;;;1.97;;
14992;SDS011;7592;51.088;13.732;2023-08-30T08:55:44;3.00;;;1.90;;
14992;SDS011;7592;51.088;13.732;2023-08-30T09:00:37;3.57;;;2.40;;
14992;SDS011;7592;51.088;13.732;2023-08-30T09:05:30;3.37;;;1.83;;
14992;SDS011;7592;51.088;13.732;2023-08-30T09:10:22;8.40;;;6.33;;
14992;SDS011;7592;51.088;13.732;2023-08-30T09:15:15;4.53;;;2.80;;
14992;SDS011;7592;51.088;13.732;2023-08-30T09:20:10;3.17;;;2.70;;
14992;SDS011;7592;51.088;13.732;2023-08-30T09:25:04;5.60;;;1.83;;
14992;SDS011;7592;51.088;13.732;2023-08-30T09:30:00;2.47;;;2.27;;
14992;SDS011;7592;51.088;13.732;2023-08-30T09:34:55;1.80;;;1.67;;
14992;SDS011;7592;51.088;13.732;2023-08-30T09:39:50;3.13;;;1.80;;
14992;SDS011;7592;51.088;13.732;2023-08-30T09:44:42;1.63;;;1.53;;
14992;SDS011;7592;51.088;13.732;2023-08-30T09:49:41;9.00;;;3.10;;
14992;SDS011;7592;51.088;13.732;2023-08-30T09:54:36;2.20;;;1.60;;
14992;SDS011;7592;51.088;13.732;2023-08-30T09:59:33;1.67;;;1.57;;
14992;SDS011;7592;51.088;13.732;2023-08-30T10:04:25;1.80;;;1.30;;
14992;SDS011;7592;51.088;13.732;2023-08-30T10:09:19;1.60;;;1.30;;
14992;SDS011;7592;51.088;13.732;2023-08-30T10:14:16;1.47;;;1.30;;
14992;SDS011;7592;51.088;13.732;2023-08-30T10:19:10;4.80;;;3.43;;
14992;SDS011;7592;51.088;13.732;2023-08-30T10:24:07;2.70;;;1.80;;
14992;SDS011;7592;51.088;13.732;2023-08-30T10:29:21;4.03;;;1.87;;
14992;SDS011;7592;51.088;13.732;2023-08-30T10:34:15;2.70;;;1.40;;
14992;SDS011;7592;51.088;13.732;2023-08-30T10:39:11;3.33;;;1.50;;
14992;SDS011;7592;51.088;13.732;2023-08-30T10:44:05;1.13;;;0.90;;
14992;SDS011;7592;51.088;13.732;2023-08-30T10:49:07;3.95;;;1.20;;
14992;SDS011;7592;51.088;13.732;2023-08-30T10:54:13;1.85;;;1.15;;
14992;SDS011;7592;51.088;13.732;2023-08-30T10:59:15;2.15;;;1.30;;
14992;SDS011;7592;51.088;13.732;2023-08-30T11:04:08;5.07;;;1.45;;
14992;SDS011;7592;51.088;13.732;2023-08-30T11:09:06;1.95;;;1.20;;
14992;SDS011;7592;51.088;13.732;2023-08-30T11:14:08;3.47;;;1.75;;
14992;SDS011;7592;51.088;13.732;2023-08-30T11:19:01;2.85;;;1.80;;
14992;SDS011;7592;51.088;13.732;2023-08-30T11:23:54;0.93;;;0.82;;
14992;SDS011;7592;51.088;13.732;2023-08-30T11:28:46;1.33;;;0.95;;
14992;SDS011;7592;51.088;13.732;2023-08-30T11:33:39;3.67;;;1.40;;
14992;SDS011;7592;51.088;13.732;2023-08-30T11:38:31;1.42;;;1.27;;
14992;SDS011;7592;51.088;13.732;2023-08-30T11:43:24;0.95;;;0.88;;
14992;SDS011;7592;51.088;13.732;2023-08-30T11:48:16;1.33;;;0.80;;
14992;SDS011;7592;51.088;13.732;2023-08-30T11:53:08;1.57;;;0.97;;
14992;SDS011;7592;51.088;13.732;2023-08-30T11:58:02;4.47;;;1.40;;
14992;SDS011;7592;51.088;13.732;2023-08-30T12:02:54;2.30;;;0.93;;
14992;SDS011;7592;51.088;13.732;2023-08-30T12:07:46;1.33;;;1.10;;
14992;SDS011;7592;51.088;13.732;2023-08-30T12:12:43;2.67;;;1.10;;
14992;SDS011;7592;51.088;13.732;2023-08-30T12:17:36;3.03;;;2.03;;
14992;SDS011;7592;51.088;13.732;2023-08-30T12:22:38;2.50;;;1.03;;
14992;SDS011;7592;51.088;13.732;2023-08-30T12:27:31;1.80;;;1.30;;
14992;SDS011;7592;51.088;13.732;2023-08-30T12:32:23;1.37;;;1.27;;
14992;SDS011;7592;51.088;13.732;2023-08-30T12:37:15;1.20;;;1.20;;
14992;SDS011;7592;51.088;13.732;2023-08-30T12:42:07;2.97;;;2.10;;
14992;SDS011;7592;51.088;13.732;2023-08-30T12:47:00;1.67;;;1.57;;
14992;SDS011;7592;51.088;13.732;2023-08-30T12:51:53;1.43;;;1.23;;
14992;SDS011;7592;51.088;13.732;2023-08-30T12:56:45;1.50;;;1.40;;
14992;SDS011;7592;51.088;13.732;2023-08-30T13:01:37;2.73;;;1.10;;
14992;SDS011;7592;51.088;13.732;2023-08-30T13:06:32;1.43;;;1.17;;
14992;SDS011;7592;51.088;13.732;2023-08-30T13:11:24;1.30;;;1.20;;
14992;SDS011;7592;51.088;13.732;2023-08-30T13:16:17;4.27;;;1.70;;
14992;SDS011;7592;51.088;13.732;2023-08-30T13:21:09;1.27;;;1.20;;
14992;SDS011;7592;51.088;13.732;2023-08-30T13:26:02;1.93;;;1.27;;
14992;SDS011;7592;51.088;13.732;2023-08-30T13:30:54;2.43;;;1.10;;
14992;SDS011;7592;51.088;13.732;2023-08-30T13:35:49;1.03;;;1.00;;
14992;SDS011;7592;51.088;13.732;2023-08-30T13:40:42;2.80;;;1.50;;
14992;SDS011;7592;51.088;13.732;2023-08-30T13:45:35;1.27;;;1.17;;
14992;SDS011;7592;51.088;13.732;2023-08-30T13:50:27;1.83;;;1.37;;
14992;SDS011;7592;51.088;13.732;2023-08-30T13:55:21;1.20;;;1.10;;
14992;SDS011;7592;51.088;13.732;2023-08-30T14:00:14;1.97;;;1.63;;
14992;SDS011;7592;51.088;13.732;2023-08-30T14:05:06;1.27;;;1.00;;
14992;SDS011;7592;51.088;13.732;2023-08-30T14:09:59;0.97;;;0.90;;
14992;SDS011;7592;51.088;13.732;2023-08-30T14:14:51;1.70;;;1.60;;
14992;SDS011;7592;51.088;13.732;2023-08-30T14:19:44;2.20;;;1.53;;
14992;SDS011;7592;51.088;13.732;2023-08-30T14:24:36;1.13;;;1.13;;
14992;SDS011;7592;51.088;13.732;2023-08-30T14:29:42;1.47;;;1.37;;
14992;SDS011;7592;51.088;13.732;2023-08-30T14:34:35;13.63;;;3.07;;
14992;SDS011;7592;51.088;13.732;2023-08-30T14:39:27;1.67;;;1.10;;
14992;SDS011;7592;51.088;13.732;2023-08-30T14:44:19;3.37;;;1.30;;
14992;SDS011;7592;51.088;13.732;2023-08-30T14:49:12;1.70;;;1.60;;
14992;SDS011;7592;51.088;13.732;2023-08-30T14:54:04;1.00;;;1.00;;
14992;SDS011;7592;51.088;13.732;2023-08-30T14:58:56;1.53;;;1.27;;
14992;SDS011;7592;51.088;13.732;2023-08-30T15:03:48;3.00;;;2.70;;
14992;SDS011;7592;51.088;13.732;2023-08-30T15:08:40;1.40;;;1.27;;
14992;SDS011;7592;51.088;13.732;2023-08-30T15:13:34;1.07;;;1.00;;
14992;SDS011;7592;51.088;13.732;2023-08-30T15:18:27;1.50;;;1.37;;
14992;SDS011;7592;51.088;13.732;2023-08-30T15:23:19;1.33;;;1.23;;
14992;SDS011;7592;51.088;13.732;2023-08-30T15:28:11;1.37;;;1.23;;
14992;SDS011;7592;51.088;13.732;2023-08-30T15:33:05;1.50;;;1.40;;
14992;SDS011;7592;51.088;13.732;2023-08-30T15:38:00;1.67;;;1.20;;
14992;SDS011;7592;51.088;13.732;2023-08-30T15:42:52;1.90;;;1.80;;
14992;SDS011;7592;51.088;13.732;2023-08-30T15:47:44;1.50;;;1.40;;
14992;SDS011;7592;51.088;13.732;2023-08-30T15:52:36;2.43;;;1.60;;
14992;SDS011;7592;51.088;13.732;2023-08-30T15:57:28;1.97;;;1.77;;
14992;SDS011;7592;51.088;13.732;2023-08-30T16:02:20;1.50;;;1.40;;
14992;SDS011;7592;51.088;13.732;2023-08-30T16:07:13;7.73;;;4.40;;
14992;SDS011;7592;51.088;13.732;2023-08-30T16:12:05;1.73;;;1.63;;
14992;SDS011;7592;51.088;13.732;2023-08-30T16:16:57;5.00;;;1.70;;
14992;SDS011;7592;51.088;13.732;2023-08-30T16:21:49;2.07;;;1.97;;
14992;SDS011;7592;51.088;13.732;2023-08-30T16:26:45;2.60;;;2.00;;
14992;SDS011;7592;51.088;13.732;2023-08-30T16:31:37;1.73;;;1.63;;
14992;SDS011;7592;51.088;13.732;2023-08-30T16:36:30;1.13;;;1.13;;
14992;SDS011;7592;51.088;13.732;2023-08-30T16:41:22;2.50;;;1.40;;
14992;SDS011;7592;51.088;13.732;2023-08-30T16:46:14;1.73;;;1.57;;
14992;SDS011;7592;51.088;13.732;2023-08-30T16:51:06;1.83;;;1.73;;
14992;SDS011;7592;51.088;13.732;2023-08-30T16:56:00;1.30;;;1.30;;
14992;SDS011;7592;51.088;13.732;2023-08-30T17:00:54;2.17;;;2.00;;
14992;SDS011;7592;51.088;13.732;2023-08-30T17:05:46;3.83;;;2.17;;
14992;SDS011;7592;51.088;13.732;2023-08-30T17:10:38;1.60;;;1.57;;
14992;SDS011;7592;51.088;13.732;2023-08-30T17:15:31;1.60;;;1.50;;
14992;SDS011;7592;51.088;13.732;2023-08-30T17:20:23;2.47;;;1.90;;
14992;SDS011;7592;51.088;13.732;2023-08-30T17:25:15;2.10;;;1.40;;
14992;SDS011;7592;51.088;13.732;2023-08-30T17:30:07;2.17;;;1.70;;
14992;SDS011;7592;51.088;13.732;2023-08-30T17:35:03;2.70;;;1.50;;
14992;SDS011;7592;51.088;13.732;2023-08-30T17:39:56;1.97;;;1.77;;
14992;SDS011;7592;51.088;13.732;2023-08-30T17:44:48;3.83;;;1.53;;
14992;SDS011;7592;51.088;13.732;2023-08-30T17:49:50;2.50;;;2.20;;
14992;SDS011;7592;51.088;13.732;2023-08-30T17:54:43;1.90;;;1.80;;
14992;SDS011;7592;51.088;13.732;2023-08-30T17:59:35;3.20;;;1.50;;
14992;SDS011;7592;51.088;13.732;2023-08-30T18:04:27;1.80;;;1.70;;
14992;SDS011;7592;51.088;13.732;2023-08-30T18:09:20;1.97;;;1.87;;
14992;SDS011;7592;51.088;13.732;2023-08-30T18:14:12;2.77;;;1.63;;
14992;SDS011;7592;51.088;13.732;2023-08-30T18:19:05;2.47;;;2.13;;
14992;SDS011;7592;51.088;13.732;2023-08-30T18:24:16;3.33;;;1.70;;
14992;SDS011;7592;51.088;13.732;2023-08-30T18:29:09;2.03;;;1.93;;
14992;SDS011;7592;51.088;13.732;2023-08-30T18:34:01;2.30;;;2.20;;
14992;SDS011;7592;51.088;13.732;2023-08-30T18:38:54;2.10;;;1.80;;
14992;SDS011;7592;51.088;13.732;2023-08-30T18:43:46;2.30;;;2.20;;
14992;SDS011;7592;51.088;13.732;2023-08-30T18:48:38;3.03;;;2.20;;
14992;SDS011;7592;51.088;13.732;2023-08-30T18:53:30;2.37;;;2.00;;
14992;SDS011;7592;51.088;13.732;2023-08-30T18:58:22;2.80;;;2.60;;
14992;SDS011;7592;51.088;13.732;2023-08-30T19:03:15;2.97;;;2.77;;
14992;SDS011;7592;51.088;13.732;2023-08-30T19:08:07;3.30;;;3.10;;
14992;SDS011;7592;51.088;13.732;2023-08-30T19:12:59;3.20;;;3.00;;
14992;SDS011;7592;51.088;13.732;2023-08-30T19:17:51;3.33;;;3.03;;
14992;SDS011;7592;51.088;13.732;2023-08-30T19:22:43;3.30;;;3.00;;
14992;SDS011;7592;51.088;13.732;2023-08-30T19:27:35;4.23;;;3.87;;
14992;SDS011;7592;51.088;13.732;2023-08-30T19:32:28;3.60;;;3.30;;
14992;SDS011;7592;51.088;13.732;2023-08-30T19:37:20;4.10;;;3.80;;
14992;SDS011;7592;51.088;13.732;2023-08-30T19:42:16;4.23;;;3.87;;
14992;SDS011;7592;51.088;13.732;2023-08-30T19:47:12;4.93;;;3.00;;
14992;SDS011;7592;51.088;13.732;2023-08-30T19:52:04;3.87;;;3.57;;
14992;SDS011;7592;51.088;13.732;2023-08-30T19:56:56;5.77;;;3.83;;
14992;SDS011;7592;51.088;13.732;2023-08-30T20:01:48;4.40;;;3.67;;
14992;SDS011;7592;51.088;13.732;2023-08-30T20:06:41;5.63;;;3.63;;
14992;SDS011;7592;51.088;13.732;2023-08-30T20:11:33;5.33;;;3.80;;
14992;SDS011;7592;51.088;13.732;2023-08-30T20:16:25;4.33;;;4.03;;
14992;SDS011;7592;51.088;13.732;2023-08-30T20:21:17;4.30;;;3.90;;
14992;SDS011;7592;51.088;13.732;2023-08-30T20:26:09;4.30;;;4.00;;
14992;SDS011;7592;51.088;13.732;2023-08-30T20:31:03;4.10;;;3.47;;
14992;SDS011;7592;51.088;13.732;2023-08-30T20:35:55;3.73;;;3.43;;
14992;SDS011;7592;51.088;13.732;2023-08-30T20:40:47;3.83;;;3.53;;
14992;SDS011;7592;51.088;13.732;2023-08-30T20:45:40;4.13;;;3.83;;
14992;SDS011;7592;51.088;13.732;2023-08-30T20:50:32;4.33;;;3.93;;
14992;SDS011;7592;51.088;13.732;2023-08-30T20:55:25;4.57;;;4.27;;
14992;SDS011;7592;51.088;13.732;2023-08-30T21:00:30;5.47;;;3.10;;
14992;SDS011;7592;51.088;13.732;2023-08-30T21:05:22;3.50;;;3.20;;
14992;SDS011;7592;51.088;13.732;2023-08-30T21:10:14;3.87;;;3.17;;
14992;SDS011;7592;51.088;13.732;2023-08-30T21:15:06;3.20;;;2.70;;
14992;SDS011;7592;51.088;13.732;2023-08-30T21:19:59;4.00;;;3.50;;
14992;SDS011;7592;51.088;13.732;2023-08-30T21:24:51;2.80;;;2.57;;
14992;SDS011;7592;51.088;13.732;2023-08-30T21:29:43;3.90;;;3.37;;
14992;SDS011;7592;51.088;13.732;2023-08-30T21:34:35;3.43;;;3.07;;
14992;SDS011;7592;51.088;13.732;2023-08-30T21:39:27;2.87;;;2.67;;
14992;SDS011;7592;51.088;13.732;2023-08-30T21:44:19;2.93;;;2.63;;
14992;SDS011;7592;51.088;13.732;2023-08-30T21:49:11;3.33;;;3.00;;
14992;SDS011;7592;51.088;13.732;2023-08-30T21:54:04;3.93;;;3.60;;
14992;SDS011;7592;51.088;13.732;2023-08-30T21:58:57;6.53;;;6.23;;
14992;SDS011;7592;51.088;13.732;2023-08-30T22:03:49;7.43;;;6.93;;
14992;SDS011;7592;51.088;13.732;2023-08-30T22:08:41;2.43;;;2.33;;
14992;SDS011;7592;51.088;13.732;2023-08-30T22:13:33;3.20;;;2.83;;
14992;SDS011;7592;51.088;13.732;2023-08-30T22:18:26;3.87;;;2.90;;
14992;SDS011;7592;51.088;13.732;2023-08-30T22:23:18;3.43;;;3.23;;
14992;SDS011;7592;51.088;13.732;2023-08-30T22:28:10;5.03;;;2.93;;
14992;SDS011;7592;51.088;13.732;2023-08-30T22:33:02;3.37;;;3.07;;
14992;SDS011;7592;51.088;13.732;2023-08-30T22:37:55;3.63;;;3.23;;
14992;SDS011;7592;51.088;13.732;2023-08-30T22:42:48;3.50;;;3.30;;
14992;SDS011;7592;51.088;13.732;2023-08-30T22:47:40;3.60;;;3.30;;
14992;SDS011;7592;51.088;13.732;2023-08-30T22:52:35;3.93;;;3.47;;
14992;SDS011;7592;51.088;13.732;2023-08-30T22:57:28;3.87;;;3.57;;
14992;SDS011;7592;51.088;13.732;2023-08-30T23:02:20;3.50;;;3.30;;
14992;SDS011;7592;51.088;13.732;2023-08-30T23:07:12;3.53;;;3.23;;
14992;SDS011;7592;51.088;13.732;2023-08-30T23:12:05;3.57;;;3.27;;
14992;SDS011;7592;51.088;13.732;2023-08-30T23:16:58;4.60;;;3.33;;
14992;SDS011;7592;51.088;13.732;2023-08-30T23:21:50;3.43;;;3.13;;
14992;SDS011;7592;51.088;13.732;2023-08-30T23:26:42;3.70;;;3.40;;
14992;SDS011;7592;51.088;13.732;2023-08-30T23:31:34;4.07;;;3.77;;
14992;SDS011;7592;51.088;13.732;2023-08-30T23:36:28;3.83;;;3.53;;
14992;SDS011;7592;51.088;13.732;2023-08-30T23:41:20;4.30;;;3.90;;
14992;SDS011;7592;51.088;13.732;2023-08-30T23:46:12;4.13;;;3.63;;
14992;SDS011;7592;51.088;13.732;2023-08-30T23:51:05;3.60;;;3.30;;
14992;SDS011;7592;51.088;13.732;2023-08-30T23:55:57;3.40;;;3.20;;
